sensor_id;sensor_type;location;lat;lon;timestamp;P1;durP1;ratioP1;P2;durP2;ratioP2
53618;SDS011;68717;53.040;18.488;2023-07-13T00:00:04;10.25;;;7.18;;
53618;SDS011;68717;53.040;18.488;2023-07-13T00:00:28;10.85;;;7.63;;
53618;SDS011;68717;53.040;18.488;2023-07-13T00:01:03;12.65;;;7.43;;
53618;SDS011;68717;53.040;18.488;2023-07-13T00:01:26;10.10;;;7.28;;
53618;SDS011;68717;53.040;18.488;2023-07-13T00:01:38;11.07;;;7.80;;
53618;SDS011;68717;53.040;18.488;2023-07-13T00:01:51;11.85;;;7.80;;
53618;SDS011;68717;53.040;18.488;2023-07-13T00:02:04;11.40;;;7.35;;
53618;SDS011;68717;53.040;18.488;2023-07-13T00:02:17;10.43;;;7.03;;
53618;SDS011;68717;53.040;18.488;2023-07-13T00:02:29;10.32;;;7.05;;
53618;SDS011;68717;53.040;18.488;2023-07-13T00:02:42;11.20;;;7.25;;
53618;SDS011;68717;53.040;18.488;2023-07-13T00:02:55;11.02;;;7.40;;
53618;SDS011;68717;53.040;18.488;2023-07-13T00:03:09;10.30;;;7.05;;
53618;SDS011;68717;53.040;18.488;2023-07-13T00:03:25;10.30;;;7.00;;
53618;SDS011;68717;53.040;18.488;2023-07-13T00:03:40;10.82;;;7.03;;
53618;SDS011;68717;53.040;18.488;2023-07-13T00:03:53;10.88;;;7.30;;
53618;SDS011;68717;53.040;18.488;2023-07-13T00:04:06;10.25;;;7.38;;
53618;SDS011;68717;53.040;18.488;2023-07-13T00:04:19;10.10;;;7.00;;
53618;SDS011;68717;53.040;18.488;2023-07-13T00:04:33;11.07;;;7.00;;
53618;SDS011;68717;53.040;18.488;2023-07-13T00:04:46;11.82;;;7.25;;
53618;SDS011;68717;53.040;18.488;2023-07-13T00:04:58;11.52;;;7.20;;
53618;SDS011;68717;53.040;18.488;2023-07-13T00:05:12;10.30;;;7.03;;
53618;SDS011;68717;53.040;18.488;2023-07-13T00:05:25;10.52;;;6.90;;
53618;SDS011;68717;53.040;18.488;2023-07-13T00:05:39;11.40;;;6.93;;
53618;SDS011;68717;53.040;18.488;2023-07-13T00:05:57;10.45;;;6.85;;
53618;SDS011;68717;53.040;18.488;2023-07-13T00:06:10;10.18;;;6.63;;
53618;SDS011;68717;53.040;18.488;2023-07-13T00:06:23;11.20;;;6.60;;
53618;SDS011;68717;53.040;18.488;2023-07-13T00:06:36;12.50;;;6.78;;
53618;SDS011;68717;53.040;18.488;2023-07-13T00:06:48;12.02;;;6.85;;
53618;SDS011;68717;53.040;18.488;2023-07-13T00:07:02;9.93;;;6.85;;
53618;SDS011;68717;53.040;18.488;2023-07-13T00:07:15;9.65;;;6.85;;
53618;SDS011;68717;53.040;18.488;2023-07-13T00:07:31;10.52;;;6.97;;
53618;SDS011;68717;53.040;18.488;2023-07-13T00:07:43;11.43;;;7.20;;
53618;SDS011;68717;53.040;18.488;2023-07-13T00:07:58;11.68;;;7.25;;
53618;SDS011;68717;53.040;18.488;2023-07-13T00:08:11;10.55;;;7.35;;
53618;SDS011;68717;53.040;18.488;2023-07-13T00:08:23;10.40;;;7.60;;
53618;SDS011;68717;53.040;18.488;2023-07-13T00:08:36;10.50;;;7.25;;
53618;SDS011;68717;53.040;18.488;2023-07-13T00:08:48;11.15;;;7.10;;
53618;SDS011;68717;53.040;18.488;2023-07-13T00:09:02;11.55;;;7.20;;
53618;SDS011;68717;53.040;18.488;2023-07-13T00:09:15;12.10;;;7.40;;
53618;SDS011;68717;53.040;18.488;2023-07-13T00:09:29;11.98;;;7.43;;
53618;SDS011;68717;53.040;18.488;2023-07-13T00:09:41;9.98;;;7.30;;
53618;SDS011;68717;53.040;18.488;2023-07-13T00:09:54;11.50;;;7.32;;
53618;SDS011;68717;53.040;18.488;2023-07-13T00:10:07;11.85;;;7.47;;
53618;SDS011;68717;53.040;18.488;2023-07-13T00:10:21;10.93;;;7.60;;
53618;SDS011;68717;53.040;18.488;2023-07-13T00:10:38;12.20;;;7.80;;
53618;SDS011;68717;53.040;18.488;2023-07-13T00:10:52;13.18;;;8.00;;
53618;SDS011;68717;53.040;18.488;2023-07-13T00:11:06;12.82;;;7.95;;
53618;SDS011;68717;53.040;18.488;2023-07-13T00:11:19;12.68;;;7.82;;
53618;SDS011;68717;53.040;18.488;2023-07-13T00:11:31;11.85;;;7.88;;
53618;SDS011;68717;53.040;18.488;2023-07-13T00:11:44;11.73;;;7.40;;
53618;SDS011;68717;53.040;18.488;2023-07-13T00:11:59;10.88;;;7.10;;
53618;SDS011;68717;53.040;18.488;2023-07-13T00:12:24;9.95;;;7.18;;
53618;SDS011;68717;53.040;18.488;2023-07-13T00:12:39;10.52;;;7.40;;
53618;SDS011;68717;53.040;18.488;2023-07-13T00:12:54;10.50;;;7.50;;
53618;SDS011;68717;53.040;18.488;2023-07-13T00:13:07;10.18;;;7.57;;
53618;SDS011;68717;53.040;18.488;2023-07-13T00:13:20;11.18;;;7.60;;
53618;SDS011;68717;53.040;18.488;2023-07-13T00:13:33;11.98;;;7.70;;
53618;SDS011;68717;53.040;18.488;2023-07-13T00:13:45;12.15;;;7.50;;
53618;SDS011;68717;53.040;18.488;2023-07-13T00:13:58;11.68;;;7.35;;
53618;SDS011;68717;53.040;18.488;2023-07-13T00:14:11;11.43;;;7.40;;
53618;SDS011;68717;53.040;18.488;2023-07-13T00:14:24;12.27;;;7.63;;
53618;SDS011;68717;53.040;18.488;2023-07-13T00:14:39;12.93;;;7.80;;
53618;SDS011;68717;53.040;18.488;2023-07-13T00:14:51;11.95;;;7.65;;
53618;SDS011;68717;53.040;18.488;2023-07-13T00:15:05;11.40;;;7.50;;
53618;SDS011;68717;53.040;18.488;2023-07-13T00:15:22;12.20;;;7.70;;
53618;SDS011;68717;53.040;18.488;2023-07-13T00:15:35;12.38;;;7.90;;
53618;SDS011;68717;53.040;18.488;2023-07-13T00:15:48;11.25;;;7.53;;
53618;SDS011;68717;53.040;18.488;2023-07-13T00:16:01;10.88;;;7.20;;
53618;SDS011;68717;53.040;18.488;2023-07-13T00:16:15;11.88;;;7.30;;
53618;SDS011;68717;53.040;18.488;2023-07-13T00:16:30;11.63;;;7.50;;
53618;SDS011;68717;53.040;18.488;2023-07-13T00:16:43;10.18;;;7.63;;
53618;SDS011;68717;53.040;18.488;2023-07-13T00:16:56;10.07;;;7.47;;
53618;SDS011;68717;53.040;18.488;2023-07-13T00:17:09;10.18;;;7.30;;
53618;SDS011;68717;53.040;18.488;2023-07-13T00:17:22;10.55;;;7.03;;
53618;SDS011;68717;53.040;18.488;2023-07-13T00:17:34;11.10;;;7.05;;
53618;SDS011;68717;53.040;18.488;2023-07-13T00:17:47;11.20;;;7.03;;
53618;SDS011;68717;53.040;18.488;2023-07-13T00:18:00;12.23;;;7.25;;
53618;SDS011;68717;53.040;18.488;2023-07-13T00:18:13;12.10;;;7.40;;
53618;SDS011;68717;53.040;18.488;2023-07-13T00:18:26;12.13;;;7.43;;
53618;SDS011;68717;53.040;18.488;2023-07-13T00:18:42;12.73;;;7.40;;
53618;SDS011;68717;53.040;18.488;2023-07-13T00:18:54;11.60;;;7.38;;
53618;SDS011;68717;53.040;18.488;2023-07-13T00:19:07;11.23;;;7.70;;
53618;SDS011;68717;53.040;18.488;2023-07-13T00:19:20;12.23;;;7.78;;
53618;SDS011;68717;53.040;18.488;2023-07-13T00:19:35;12.68;;;7.47;;
53618;SDS011;68717;53.040;18.488;2023-07-13T00:19:48;11.48;;;7.47;;
53618;SDS011;68717;53.040;18.488;2023-07-13T00:20:00;11.80;;;7.50;;
53618;SDS011;68717;53.040;18.488;2023-07-13T00:20:14;11.00;;;7.38;;
53618;SDS011;68717;53.040;18.488;2023-07-13T00:20:26;11.75;;;7.63;;
53618;SDS011;68717;53.040;18.488;2023-07-13T00:20:40;11.98;;;7.47;;
53618;SDS011;68717;53.040;18.488;2023-07-13T00:20:53;10.20;;;7.07;;
53618;SDS011;68717;53.040;18.488;2023-07-13T00:21:06;9.60;;;7.15;;
53618;SDS011;68717;53.040;18.488;2023-07-13T00:21:18;10.32;;;7.38;;
53618;SDS011;68717;53.040;18.488;2023-07-13T00:21:31;10.48;;;7.50;;
53618;SDS011;68717;53.040;18.488;2023-07-13T00:21:44;10.68;;;7.28;;
53618;SDS011;68717;53.040;18.488;2023-07-13T00:21:57;11.05;;;7.45;;
53618;SDS011;68717;53.040;18.488;2023-07-13T00:22:10;11.63;;;7.70;;
53618;SDS011;68717;53.040;18.488;2023-07-13T00:22:23;11.77;;;7.47;;
53618;SDS011;68717;53.040;18.488;2023-07-13T00:22:38;11.95;;;7.50;;
53618;SDS011;68717;53.040;18.488;2023-07-13T00:22:51;10.73;;;7.65;;
53618;SDS011;68717;53.040;18.488;2023-07-13T00:23:05;10.93;;;7.65;;
53618;SDS011;68717;53.040;18.488;2023-07-13T00:23:18;11.15;;;7.28;;
53618;SDS011;68717;53.040;18.488;2023-07-13T00:23:31;11.70;;;6.97;;
53618;SDS011;68717;53.040;18.488;2023-07-13T00:23:45;13.00;;;7.18;;
53618;SDS011;68717;53.040;18.488;2023-07-13T00:23:58;12.43;;;7.20;;
53618;SDS011;68717;53.040;18.488;2023-07-13T00:24:14;10.70;;;7.28;;
53618;SDS011;68717;53.040;18.488;2023-07-13T00:24:35;10.55;;;7.38;;
53618;SDS011;68717;53.040;18.488;2023-07-13T00:24:51;10.90;;;7.40;;
53618;SDS011;68717;53.040;18.488;2023-07-13T00:25:04;10.88;;;7.07;;
53618;SDS011;68717;53.040;18.488;2023-07-13T00:25:17;10.80;;;7.15;;
53618;SDS011;68717;53.040;18.488;2023-07-13T00:25:30;10.48;;;7.47;;
53618;SDS011;68717;53.040;18.488;2023-07-13T00:25:43;11.30;;;7.70;;
53618;SDS011;68717;53.040;18.488;2023-07-13T00:25:55;12.63;;;7.60;;
53618;SDS011;68717;53.040;18.488;2023-07-13T00:26:10;14.00;;;7.50;;
53618;SDS011;68717;53.040;18.488;2023-07-13T00:26:25;12.48;;;7.38;;
53618;SDS011;68717;53.040;18.488;2023-07-13T00:26:37;11.40;;;7.38;;
53618;SDS011;68717;53.040;18.488;2023-07-13T00:26:50;11.85;;;7.60;;
53618;SDS011;68717;53.040;18.488;2023-07-13T00:27:03;11.73;;;7.53;;
53618;SDS011;68717;53.040;18.488;2023-07-13T00:27:16;10.82;;;7.10;;
53618;SDS011;68717;53.040;18.488;2023-07-13T00:27:29;11.77;;;7.00;;
53618;SDS011;68717;53.040;18.488;2023-07-13T00:27:44;13.00;;;7.43;;
53618;SDS011;68717;53.040;18.488;2023-07-13T00:27:56;11.02;;;7.45;;
53618;SDS011;68717;53.040;18.488;2023-07-13T00:28:10;11.02;;;7.65;;
53618;SDS011;68717;53.040;18.488;2023-07-13T00:28:23;11.77;;;7.57;;
53618;SDS011;68717;53.040;18.488;2023-07-13T00:28:35;12.05;;;7.53;;
53618;SDS011;68717;53.040;18.488;2023-07-13T00:28:48;12.35;;;7.70;;
53618;SDS011;68717;53.040;18.488;2023-07-13T00:29:01;11.75;;;7.70;;
53618;SDS011;68717;53.040;18.488;2023-07-13T00:29:14;10.45;;;7.60;;
53618;SDS011;68717;53.040;18.488;2023-07-13T00:29:28;11.05;;;7.35;;
53618;SDS011;68717;53.040;18.488;2023-07-13T00:29:42;11.63;;;7.32;;
53618;SDS011;68717;53.040;18.488;2023-07-13T00:29:55;12.27;;;7.40;;
53618;SDS011;68717;53.040;18.488;2023-07-13T00:30:09;13.30;;;7.65;;
53618;SDS011;68717;53.040;18.488;2023-07-13T00:30:22;12.68;;;7.80;;
53618;SDS011;68717;53.040;18.488;2023-07-13T00:30:34;13.35;;;7.78;;
53618;SDS011;68717;53.040;18.488;2023-07-13T00:30:47;13.55;;;7.72;;
53618;SDS011;68717;53.040;18.488;2023-07-13T00:31:00;12.32;;;7.70;;
53618;SDS011;68717;53.040;18.488;2023-07-13T00:31:13;11.57;;;7.60;;
53618;SDS011;68717;53.040;18.488;2023-07-13T00:31:28;11.55;;;7.15;;
53618;SDS011;68717;53.040;18.488;2023-07-13T00:31:42;11.35;;;7.00;;
53618;SDS011;68717;53.040;18.488;2023-07-13T00:31:55;10.48;;;7.00;;
53618;SDS011;68717;53.040;18.488;2023-07-13T00:32:09;10.13;;;7.03;;
53618;SDS011;68717;53.040;18.488;2023-07-13T00:32:23;10.45;;;7.20;;
53618;SDS011;68717;53.040;18.488;2023-07-13T00:32:37;10.57;;;7.32;;
53618;SDS011;68717;53.040;18.488;2023-07-13T00:32:50;11.18;;;7.55;;
53618;SDS011;68717;53.040;18.488;2023-07-13T00:33:15;11.13;;;7.47;;
53618;SDS011;68717;53.040;18.488;2023-07-13T00:33:29;10.90;;;7.35;;
53618;SDS011;68717;53.040;18.488;2023-07-13T00:33:43;10.52;;;7.28;;
53618;SDS011;68717;53.040;18.488;2023-07-13T00:33:56;10.00;;;7.22;;
53618;SDS011;68717;53.040;18.488;2023-07-13T00:34:08;10.00;;;7.57;;
53618;SDS011;68717;53.040;18.488;2023-07-13T00:34:21;10.68;;;7.55;;
53618;SDS011;68717;53.040;18.488;2023-07-13T00:34:34;12.05;;;7.50;;
53618;SDS011;68717;53.040;18.488;2023-07-13T00:34:46;12.00;;;7.57;;
53618;SDS011;68717;53.040;18.488;2023-07-13T00:34:59;10.80;;;7.40;;
53618;SDS011;68717;53.040;18.488;2023-07-13T00:35:13;11.90;;;7.30;;
53618;SDS011;68717;53.040;18.488;2023-07-13T00:35:29;12.40;;;7.57;;
53618;SDS011;68717;53.040;18.488;2023-07-13T00:35:42;11.10;;;7.68;;
53618;SDS011;68717;53.040;18.488;2023-07-13T00:35:56;10.93;;;7.60;;
53618;SDS011;68717;53.040;18.488;2023-07-13T00:36:10;10.80;;;7.80;;
53618;SDS011;68717;53.040;18.488;2023-07-13T00:36:23;11.45;;;7.97;;
53618;SDS011;68717;53.040;18.488;2023-07-13T00:36:35;11.98;;;7.90;;
53618;SDS011;68717;53.040;18.488;2023-07-13T00:36:48;11.50;;;7.32;;
53618;SDS011;68717;53.040;18.488;2023-07-13T00:37:01;11.48;;;7.22;;
53618;SDS011;68717;53.040;18.488;2023-07-13T00:37:13;11.75;;;7.28;;
53618;SDS011;68717;53.040;18.488;2023-07-13T00:37:27;12.20;;;7.20;;
53618;SDS011;68717;53.040;18.488;2023-07-13T00:37:39;11.75;;;7.07;;
53618;SDS011;68717;53.040;18.488;2023-07-13T00:37:52;11.73;;;7.00;;
53618;SDS011;68717;53.040;18.488;2023-07-13T00:38:04;10.55;;;6.90;;
53618;SDS011;68717;53.040;18.488;2023-07-13T00:38:17;11.55;;;7.30;;
53618;SDS011;68717;53.040;18.488;2023-07-13T00:38:30;11.30;;;7.20;;
53618;SDS011;68717;53.040;18.488;2023-07-13T00:38:43;10.63;;;7.18;;
53618;SDS011;68717;53.040;18.488;2023-07-13T00:38:56;12.15;;;7.70;;
53618;SDS011;68717;53.040;18.488;2023-07-13T00:39:08;11.85;;;7.72;;
53618;SDS011;68717;53.040;18.488;2023-07-13T00:39:22;12.75;;;7.90;;
53618;SDS011;68717;53.040;18.488;2023-07-13T00:39:35;13.13;;;7.80;;
53618;SDS011;68717;53.040;18.488;2023-07-13T00:39:48;12.85;;;7.53;;
53618;SDS011;68717;53.040;18.488;2023-07-13T00:40:01;12.52;;;7.18;;
53618;SDS011;68717;53.040;18.488;2023-07-13T00:40:15;10.88;;;6.82;;
53618;SDS011;68717;53.040;18.488;2023-07-13T00:40:28;11.30;;;7.10;;
53618;SDS011;68717;53.040;18.488;2023-07-13T00:40:41;12.27;;;7.20;;
53618;SDS011;68717;53.040;18.488;2023-07-13T00:40:54;12.52;;;7.75;;
53618;SDS011;68717;53.040;18.488;2023-07-13T00:41:07;11.73;;;7.90;;
53618;SDS011;68717;53.040;18.488;2023-07-13T00:41:21;11.50;;;8.00;;
53618;SDS011;68717;53.040;18.488;2023-07-13T00:41:33;11.98;;;8.18;;
53618;SDS011;68717;53.040;18.488;2023-07-13T00:41:46;12.32;;;8.27;;
53618;SDS011;68717;53.040;18.488;2023-07-13T00:41:59;12.50;;;8.18;;
53618;SDS011;68717;53.040;18.488;2023-07-13T00:42:12;12.10;;;7.68;;
53618;SDS011;68717;53.040;18.488;2023-07-13T00:42:24;11.80;;;7.45;;
53618;SDS011;68717;53.040;18.488;2023-07-13T00:42:37;10.43;;;7.22;;
53618;SDS011;68717;53.040;18.488;2023-07-13T00:42:51;11.18;;;7.43;;
53618;SDS011;68717;53.040;18.488;2023-07-13T00:43:08;11.90;;;7.57;;
53618;SDS011;68717;53.040;18.488;2023-07-13T00:43:27;11.13;;;7.85;;
53618;SDS011;68717;53.040;18.488;2023-07-13T00:43:40;10.48;;;7.38;;
53618;SDS011;68717;53.040;18.488;2023-07-13T00:43:53;9.93;;;7.03;;
53618;SDS011;68717;53.040;18.488;2023-07-13T00:44:08;10.93;;;7.25;;
53618;SDS011;68717;53.040;18.488;2023-07-13T00:44:24;11.80;;;7.85;;
53618;SDS011;68717;53.040;18.488;2023-07-13T00:44:37;12.27;;;8.05;;
53618;SDS011;68717;53.040;18.488;2023-07-13T00:45:02;13.23;;;8.10;;
53618;SDS011;68717;53.040;18.488;2023-07-13T00:46:15;12.50;;;7.75;;
53618;SDS011;68717;53.040;18.488;2023-07-13T00:46:36;11.73;;;8.20;;
53618;SDS011;68717;53.040;18.488;2023-07-13T00:46:49;11.65;;;8.07;;
53618;SDS011;68717;53.040;18.488;2023-07-13T00:47:02;12.35;;;8.18;;
53618;SDS011;68717;53.040;18.488;2023-07-13T00:47:15;12.80;;;8.30;;
53618;SDS011;68717;53.040;18.488;2023-07-13T00:47:27;12.73;;;8.48;;
53618;SDS011;68717;53.040;18.488;2023-07-13T00:47:40;12.57;;;8.43;;
53618;SDS011;68717;53.040;18.488;2023-07-13T00:47:54;13.82;;;8.65;;
53618;SDS011;68717;53.040;18.488;2023-07-13T00:48:09;14.35;;;8.65;;
53618;SDS011;68717;53.040;18.488;2023-07-13T00:48:25;13.90;;;8.60;;
53618;SDS011;68717;53.040;18.488;2023-07-13T00:48:41;13.68;;;8.88;;
53618;SDS011;68717;53.040;18.488;2023-07-13T00:48:56;16.00;;;8.80;;
53618;SDS011;68717;53.040;18.488;2023-07-13T00:49:12;15.73;;;8.32;;
53618;SDS011;68717;53.040;18.488;2023-07-13T00:49:31;13.48;;;8.27;;
53618;SDS011;68717;53.040;18.488;2023-07-13T00:49:46;13.10;;;8.50;;
53618;SDS011;68717;53.040;18.488;2023-07-13T00:49:59;13.73;;;8.30;;
53618;SDS011;68717;53.040;18.488;2023-07-13T00:50:14;13.93;;;8.15;;
53618;SDS011;68717;53.040;18.488;2023-07-13T00:50:28;13.10;;;8.10;;
53618;SDS011;68717;53.040;18.488;2023-07-13T00:50:41;14.05;;;8.07;;
53618;SDS011;68717;53.040;18.488;2023-07-13T00:50:56;14.20;;;8.32;;
53618;SDS011;68717;53.040;18.488;2023-07-13T00:51:12;12.48;;;8.88;;
53618;SDS011;68717;53.040;18.488;2023-07-13T00:51:27;12.32;;;8.73;;
53618;SDS011;68717;53.040;18.488;2023-07-13T00:51:46;11.75;;;8.07;;
53618;SDS011;68717;53.040;18.488;2023-07-13T00:52:04;12.63;;;8.30;;
53618;SDS011;68717;53.040;18.488;2023-07-13T00:52:18;14.43;;;8.52;;
53618;SDS011;68717;53.040;18.488;2023-07-13T00:52:31;14.68;;;8.65;;
53618;SDS011;68717;53.040;18.488;2023-07-13T00:52:44;15.43;;;8.90;;
53618;SDS011;68717;53.040;18.488;2023-07-13T00:53:00;15.20;;;8.52;;
53618;SDS011;68717;53.040;18.488;2023-07-13T00:53:12;13.82;;;8.60;;
53618;SDS011;68717;53.040;18.488;2023-07-13T00:53:26;12.90;;;8.50;;
53618;SDS011;68717;53.040;18.488;2023-07-13T00:53:41;13.80;;;8.10;;
53618;SDS011;68717;53.040;18.488;2023-07-13T00:53:56;14.73;;;8.43;;
53618;SDS011;68717;53.040;18.488;2023-07-13T00:54:13;13.57;;;8.57;;
53618;SDS011;68717;53.040;18.488;2023-07-13T00:54:31;12.38;;;8.40;;
53618;SDS011;68717;53.040;18.488;2023-07-13T00:54:47;13.70;;;7.78;;
53618;SDS011;68717;53.040;18.488;2023-07-13T00:55:00;13.15;;;7.68;;
53618;SDS011;68717;53.040;18.488;2023-07-13T00:55:15;12.05;;;8.32;;
53618;SDS011;68717;53.040;18.488;2023-07-13T00:55:28;12.43;;;8.57;;
53618;SDS011;68717;53.040;18.488;2023-07-13T00:55:41;11.60;;;8.63;;
53618;SDS011;68717;53.040;18.488;2023-07-13T00:55:54;12.13;;;8.77;;
53618;SDS011;68717;53.040;18.488;2023-07-13T00:56:08;12.93;;;8.75;;
53618;SDS011;68717;53.040;18.488;2023-07-13T00:56:22;12.70;;;8.63;;
53618;SDS011;68717;53.040;18.488;2023-07-13T00:56:35;11.93;;;8.50;;
53618;SDS011;68717;53.040;18.488;2023-07-13T00:56:50;13.07;;;8.45;;
53618;SDS011;68717;53.040;18.488;2023-07-13T00:57:07;13.27;;;8.40;;
53618;SDS011;68717;53.040;18.488;2023-07-13T00:57:24;11.68;;;8.35;;
53618;SDS011;68717;53.040;18.488;2023-07-13T00:57:37;12.82;;;8.38;;
53618;SDS011;68717;53.040;18.488;2023-07-13T00:57:50;12.93;;;8.40;;
53618;SDS011;68717;53.040;18.488;2023-07-13T00:58:02;12.55;;;8.20;;
53618;SDS011;68717;53.040;18.488;2023-07-13T00:58:17;13.07;;;8.15;;
53618;SDS011;68717;53.040;18.488;2023-07-13T00:58:29;12.77;;;8.13;;
53618;SDS011;68717;53.040;18.488;2023-07-13T00:58:42;13.95;;;8.30;;
53618;SDS011;68717;53.040;18.488;2023-07-13T00:58:55;13.98;;;8.45;;
53618;SDS011;68717;53.040;18.488;2023-07-13T00:59:11;12.50;;;8.50;;
53618;SDS011;68717;53.040;18.488;2023-07-13T00:59:25;12.10;;;8.48;;
53618;SDS011;68717;53.040;18.488;2023-07-13T00:59:38;12.35;;;8.63;;
53618;SDS011;68717;53.040;18.488;2023-07-13T00:59:55;13.05;;;8.48;;
53618;SDS011;68717;53.040;18.488;2023-07-13T01:00:18;15.40;;;8.63;;
53618;SDS011;68717;53.040;18.488;2023-07-13T01:00:34;16.45;;;8.60;;
53618;SDS011;68717;53.040;18.488;2023-07-13T01:00:48;14.52;;;8.50;;
53618;SDS011;68717;53.040;18.488;2023-07-13T01:01:02;12.45;;;8.27;;
53618;SDS011;68717;53.040;18.488;2023-07-13T01:01:15;11.98;;;8.15;;
53618;SDS011;68717;53.040;18.488;2023-07-13T01:01:29;13.30;;;8.32;;
53618;SDS011;68717;53.040;18.488;2023-07-13T01:01:43;13.52;;;8.45;;
53618;SDS011;68717;53.040;18.488;2023-07-13T01:01:55;12.52;;;8.57;;
53618;SDS011;68717;53.040;18.488;2023-07-13T01:02:08;11.98;;;8.43;;
53618;SDS011;68717;53.040;18.488;2023-07-13T01:02:22;12.45;;;8.43;;
53618;SDS011;68717;53.040;18.488;2023-07-13T01:02:36;14.25;;;8.60;;
53618;SDS011;68717;53.040;18.488;2023-07-13T01:02:51;14.07;;;8.52;;
53618;SDS011;68717;53.040;18.488;2023-07-13T01:03:04;11.85;;;8.23;;
53618;SDS011;68717;53.040;18.488;2023-07-13T01:03:16;12.80;;;8.48;;
53618;SDS011;68717;53.040;18.488;2023-07-13T01:03:31;13.85;;;8.57;;
53618;SDS011;68717;53.040;18.488;2023-07-13T01:03:44;12.63;;;8.30;;
53618;SDS011;68717;53.040;18.488;2023-07-13T01:03:59;11.60;;;8.30;;
53618;SDS011;68717;53.040;18.488;2023-07-13T01:04:11;11.95;;;8.23;;
53618;SDS011;68717;53.040;18.488;2023-07-13T01:04:25;12.63;;;8.23;;
53618;SDS011;68717;53.040;18.488;2023-07-13T01:04:38;12.27;;;8.18;;
53618;SDS011;68717;53.040;18.488;2023-07-13T01:04:50;12.60;;;8.02;;
53618;SDS011;68717;53.040;18.488;2023-07-13T01:05:07;14.50;;;8.27;;
53618;SDS011;68717;53.040;18.488;2023-07-13T01:05:22;15.73;;;8.70;;
53618;SDS011;68717;53.040;18.488;2023-07-13T01:05:37;14.70;;;8.68;;
53618;SDS011;68717;53.040;18.488;2023-07-13T01:05:51;13.63;;;8.57;;
53618;SDS011;68717;53.040;18.488;2023-07-13T01:06:06;12.57;;;8.57;;
53618;SDS011;68717;53.040;18.488;2023-07-13T01:06:19;12.60;;;8.50;;
53618;SDS011;68717;53.040;18.488;2023-07-13T01:06:32;12.65;;;8.45;;
53618;SDS011;68717;53.040;18.488;2023-07-13T01:06:45;12.15;;;8.32;;
53618;SDS011;68717;53.040;18.488;2023-07-13T01:06:59;11.65;;;8.48;;
53618;SDS011;68717;53.040;18.488;2023-07-13T01:07:12;11.30;;;8.35;;
53618;SDS011;68717;53.040;18.488;2023-07-13T01:07:25;12.45;;;8.20;;
53618;SDS011;68717;53.040;18.488;2023-07-13T01:07:38;13.70;;;8.43;;
53618;SDS011;68717;53.040;18.488;2023-07-13T01:07:51;13.45;;;8.63;;
53618;SDS011;68717;53.040;18.488;2023-07-13T01:08:04;12.95;;;8.55;;
53618;SDS011;68717;53.040;18.488;2023-07-13T01:08:17;12.70;;;8.32;;
53618;SDS011;68717;53.040;18.488;2023-07-13T01:08:30;13.48;;;8.25;;
53618;SDS011;68717;53.040;18.488;2023-07-13T01:08:43;13.70;;;8.05;;
53618;SDS011;68717;53.040;18.488;2023-07-13T01:08:56;12.70;;;8.23;;
53618;SDS011;68717;53.040;18.488;2023-07-13T01:09:11;12.10;;;8.50;;
53618;SDS011;68717;53.040;18.488;2023-07-13T01:09:25;11.98;;;8.43;;
53618;SDS011;68717;53.040;18.488;2023-07-13T01:09:39;13.73;;;8.50;;
53618;SDS011;68717;53.040;18.488;2023-07-13T01:09:52;13.50;;;8.63;;
53618;SDS011;68717;53.040;18.488;2023-07-13T01:10:05;12.95;;;8.48;;
53618;SDS011;68717;53.040;18.488;2023-07-13T01:10:21;12.25;;;8.20;;
53618;SDS011;68717;53.040;18.488;2023-07-13T01:10:34;12.95;;;8.30;;
53618;SDS011;68717;53.040;18.488;2023-07-13T01:10:52;14.60;;;8.63;;
53618;SDS011;68717;53.040;18.488;2023-07-13T01:11:05;13.88;;;8.85;;
53618;SDS011;68717;53.040;18.488;2023-07-13T01:11:20;14.88;;;9.15;;
53618;SDS011;68717;53.040;18.488;2023-07-13T01:11:34;14.48;;;9.10;;
53618;SDS011;68717;53.040;18.488;2023-07-13T01:11:47;12.93;;;9.10;;
53618;SDS011;68717;53.040;18.488;2023-07-13T01:12:00;12.77;;;9.02;;
53618;SDS011;68717;53.040;18.488;2023-07-13T01:12:13;14.32;;;9.30;;
53618;SDS011;68717;53.040;18.488;2023-07-13T01:12:27;14.73;;;9.45;;
53618;SDS011;68717;53.040;18.488;2023-07-13T01:12:40;13.20;;;9.50;;
53618;SDS011;68717;53.040;18.488;2023-07-13T01:12:53;12.82;;;9.40;;
53618;SDS011;68717;53.040;18.488;2023-07-13T01:13:07;12.38;;;9.18;;
53618;SDS011;68717;53.040;18.488;2023-07-13T01:13:21;12.27;;;8.80;;
53618;SDS011;68717;53.040;18.488;2023-07-13T01:13:34;12.32;;;8.63;;
53618;SDS011;68717;53.040;18.488;2023-07-13T01:13:46;13.15;;;8.52;;
53618;SDS011;68717;53.040;18.488;2023-07-13T01:13:59;13.90;;;8.52;;
53618;SDS011;68717;53.040;18.488;2023-07-13T01:14:13;13.40;;;8.75;;
53618;SDS011;68717;53.040;18.488;2023-07-13T01:14:26;13.10;;;8.82;;
53618;SDS011;68717;53.040;18.488;2023-07-13T01:14:39;13.50;;;8.77;;
53618;SDS011;68717;53.040;18.488;2023-07-13T01:14:56;13.90;;;8.60;;
53618;SDS011;68717;53.040;18.488;2023-07-13T01:15:49;13.50;;;9.23;;
53618;SDS011;68717;53.040;18.488;2023-07-13T01:16:05;13.43;;;8.80;;
53618;SDS011;68717;53.040;18.488;2023-07-13T01:16:29;17.00;;;8.80;;
53618;SDS011;68717;53.040;18.488;2023-07-13T01:16:45;15.48;;;8.32;;
53618;SDS011;68717;53.040;18.488;2023-07-13T01:16:59;12.77;;;8.40;;
53618;SDS011;68717;53.040;18.488;2023-07-13T01:17:12;11.75;;;8.45;;
53618;SDS011;68717;53.040;18.488;2023-07-13T01:17:27;12.48;;;8.57;;
53618;SDS011;68717;53.040;18.488;2023-07-13T01:17:41;12.80;;;8.88;;
53618;SDS011;68717;53.040;18.488;2023-07-13T01:17:53;12.43;;;8.63;;
53618;SDS011;68717;53.040;18.488;2023-07-13T01:18:08;13.73;;;8.48;;
53618;SDS011;68717;53.040;18.488;2023-07-13T01:18:24;14.15;;;8.60;;
53618;SDS011;68717;53.040;18.488;2023-07-13T01:18:39;14.02;;;8.82;;
53618;SDS011;68717;53.040;18.488;2023-07-13T01:18:51;13.60;;;8.88;;
53618;SDS011;68717;53.040;18.488;2023-07-13T01:19:06;13.73;;;8.55;;
53618;SDS011;68717;53.040;18.488;2023-07-13T01:19:29;15.00;;;8.32;;
53618;SDS011;68717;53.040;18.488;2023-07-13T01:19:48;13.55;;;8.35;;
53618;SDS011;68717;53.040;18.488;2023-07-13T01:20:01;14.27;;;8.80;;
53618;SDS011;68717;53.040;18.488;2023-07-13T01:20:14;12.85;;;8.60;;
53618;SDS011;68717;53.040;18.488;2023-07-13T01:20:27;13.00;;;8.10;;
53618;SDS011;68717;53.040;18.488;2023-07-13T01:20:40;14.20;;;8.20;;
53618;SDS011;68717;53.040;18.488;2023-07-13T01:20:55;13.25;;;8.23;;
53618;SDS011;68717;53.040;18.488;2023-07-13T01:21:08;11.50;;;7.88;;
53618;SDS011;68717;53.040;18.488;2023-07-13T01:21:22;11.38;;;7.72;;
53618;SDS011;68717;53.040;18.488;2023-07-13T01:21:35;11.57;;;7.78;;
53618;SDS011;68717;53.040;18.488;2023-07-13T01:21:49;12.95;;;8.20;;
53618;SDS011;68717;53.040;18.488;2023-07-13T01:22:03;13.15;;;8.45;;
53618;SDS011;68717;53.040;18.488;2023-07-13T01:22:18;13.10;;;8.60;;
53618;SDS011;68717;53.040;18.488;2023-07-13T01:22:31;13.23;;;8.50;;
53618;SDS011;68717;53.040;18.488;2023-07-13T01:22:44;11.90;;;8.20;;
53618;SDS011;68717;53.040;18.488;2023-07-13T01:22:57;10.93;;;8.07;;
53618;SDS011;68717;53.040;18.488;2023-07-13T01:23:12;10.80;;;7.95;;
53618;SDS011;68717;53.040;18.488;2023-07-13T01:23:26;13.07;;;8.30;;
53618;SDS011;68717;53.040;18.488;2023-07-13T01:23:39;14.77;;;8.45;;